createdAt,value
2022-09-05T09:49:23.774Z,2.40
2022-09-05T09:55:54.324Z,2.35
2022-09-05T09:58:55.458Z,2.60
2022-09-05T10:01:39.375Z,2.30
2022-09-05T10:10:34.106Z,2.00
2022-09-05T10:10:49.409Z,2.13
2022-09-05T10:14:56.942Z,2.42
2022-09-05T10:17:45.938Z,2.38
2022-09-05T10:20:32.897Z,2.47
2022-09-05T10:23:49.605Z,2.42
2022-09-05T10:26:47.345Z,2.30
2022-09-05T10:29:56.436Z,2.22
2022-09-05T10:35:10.679Z,2.45
2022-09-05T10:41:09.666Z,2.33
2022-09-05T10:43:56.144Z,2.30
2022-09-05T10:46:50.793Z,2.10
2022-09-05T10:49:34.006Z,1.98
2022-09-05T10:52:44.587Z,1.77
2022-09-05T10:55:32.736Z,2.17
2022-09-05T10:58:11.191Z,1.70
2022-09-05T11:02:27.906Z,1.70
2022-09-05T11:06:39.382Z,1.77
2022-09-05T11:09:16.392Z,2.30
2022-09-05T11:14:49.483Z,1.77
2022-09-05T11:17:19.011Z,1.77
2022-09-05T11:19:55.974Z,2.00
2022-09-05T11:22:27.156Z,1.80
2022-09-05T11:25:06.724Z,1.88
2022-09-05T11:27:48.170Z,1.73
2022-09-05T11:30:28.456Z,1.95
2022-09-05T11:39:58.552Z,2.20
2022-09-05T11:39:59.857Z,1.90
2022-09-05T11:42:27.825Z,2.03
2022-09-05T11:45:10.304Z,2.03
2022-09-05T11:48:15.195Z,1.77
2022-09-05T11:51:06.755Z,2.03
2022-09-05T11:53:46.013Z,1.98
2022-09-05T11:56:12.964Z,2.00
2022-09-05T11:59:05.103Z,2.40
2022-09-05T12:02:16.621Z,2.05
2022-09-05T12:05:48.701Z,2.80
2022-09-05T12:08:14.715Z,2.30
2022-09-05T12:11:10.420Z,2.30
2022-09-05T12:13:40.472Z,1.98
2022-09-05T12:16:26.904Z,2.20
2022-09-05T12:19:18.684Z,2.15
2022-09-05T12:22:18.601Z,2.38
2022-09-05T12:25:27.199Z,2.10
2022-09-05T12:29:26.305Z,1.70
2022-09-05T12:32:50.261Z,2.10
2022-09-05T12:36:04.421Z,1.88
2022-09-05T12:39:56.030Z,2.03
2022-09-05T12:40:57.093Z,2.10
2022-09-05T12:43:14.389Z,2.20
2022-09-05T12:45:56.494Z,1.98
2022-09-05T12:48:38.350Z,2.00
2022-09-05T12:51:46.447Z,2.20
2022-09-05T12:54:32.550Z,2.00
2022-09-05T13:02:48.695Z,2.10
2022-09-05T13:03:03.635Z,2.25
2022-09-05T13:03:37.994Z,1.80
2022-09-05T13:06:09.734Z,1.95
2022-09-05T13:08:59.400Z,2.00
2022-09-05T13:14:49.893Z,1.85
2022-09-05T13:14:53.191Z,1.83
2022-09-05T13:17:14.019Z,1.70
2022-09-05T13:19:51.437Z,2.10
2022-09-05T13:22:22.730Z,1.90
2022-09-05T13:25:04.463Z,1.73
2022-09-05T13:27:39.484Z,1.73
2022-09-05T13:33:41.540Z,1.67
2022-09-05T13:38:02.790Z,1.70
2022-09-05T13:38:20.017Z,1.63
2022-09-05T13:39:12.221Z,1.60
2022-09-05T13:41:51.050Z,1.60
2022-09-05T13:44:27.049Z,1.90
2022-09-05T13:47:30.255Z,1.88
2022-09-05T13:50:24.392Z,1.98
2022-09-05T13:53:29.426Z,1.80
2022-09-05T13:56:25.242Z,2.00
2022-09-05T13:58:59.941Z,1.70
2022-09-05T14:02:02.987Z,1.83
2022-09-05T14:05:19.618Z,1.90
2022-09-05T14:08:19.502Z,1.70
2022-09-05T14:10:49.251Z,1.80
2022-09-05T14:13:24.266Z,2.03
2022-09-05T14:15:52.678Z,1.90
2022-09-05T14:18:27.892Z,1.90
2022-09-05T14:21:17.927Z,1.63
2022-09-05T14:24:27.463Z,1.85
2022-09-05T14:26:58.404Z,1.80
2022-09-05T14:29:33.100Z,1.73
2022-09-05T14:37:45.331Z,1.92
2022-09-05T14:37:49.293Z,2.00
2022-09-05T14:38:49.071Z,2.20
2022-09-05T14:41:36.343Z,1.85
2022-09-05T14:44:06.133Z,1.75
2022-09-05T14:46:45.136Z,1.98
2022-09-05T14:49:34.982Z,2.22
2022-09-05T14:52:25.702Z,1.75
2022-09-05T15:02:45.421Z,2.08
2022-09-05T15:02:53.849Z,1.90
2022-09-05T15:06:35.681Z,2.05
2022-09-05T15:11:50.696Z,1.90
2022-09-05T15:12:27.777Z,1.90
2022-09-05T15:14:45.158Z,1.42
2022-09-05T15:17:22.658Z,1.63
2022-09-05T15:20:06.218Z,1.73
2022-09-05T15:22:37.955Z,2.00
2022-09-05T15:25:18.610Z,1.90
2022-09-05T15:27:47.148Z,1.98
2022-09-05T15:30:19.680Z,2.13
2022-09-05T15:32:50.636Z,1.80
2022-09-05T15:35:35.320Z,1.90
2022-09-05T15:38:21.485Z,1.65
2022-09-05T15:41:12.173Z,1.80
2022-09-05T15:43:59.963Z,2.03
2022-09-05T15:46:49.485Z,1.70
2022-09-05T15:49:32.859Z,1.95
2022-09-05T15:52:09.595Z,1.60
2022-09-05T15:54:49.521Z,1.83
2022-09-05T15:57:28.972Z,2.05
2022-09-05T16:00:02.095Z,1.90
2022-09-05T16:02:38.116Z,1.95
2022-09-05T16:10:31.698Z,1.70
2022-09-05T16:10:46.538Z,1.80
2022-09-05T16:12:00.388Z,1.50
2022-09-05T16:14:27.123Z,1.70
2022-09-05T16:23:18.845Z,2.00
2022-09-05T16:23:24.301Z,1.90
2022-09-05T16:23:32.673Z,3.13
2022-09-05T16:26:11.193Z,2.05
2022-09-05T16:29:28.323Z,1.70
2022-09-05T16:32:02.216Z,1.90
2022-09-05T16:34:55.842Z,1.70
2022-09-05T16:37:43.576Z,1.73
2022-09-05T16:40:34.680Z,1.60
2022-09-05T16:43:16.247Z,1.70
2022-09-05T16:46:27.202Z,1.70
2022-09-05T16:49:19.294Z,1.60
2022-09-05T16:52:17.145Z,1.90
2022-09-05T16:55:03.393Z,1.80
2022-09-05T16:57:34.342Z,2.00
2022-09-05T17:00:04.070Z,1.98
2022-09-05T17:02:44.200Z,1.90
2022-09-05T17:05:37.494Z,1.95
2022-09-05T17:08:15.396Z,2.10
2022-09-05T17:11:13.750Z,1.67
2022-09-05T17:14:05.249Z,2.20
2022-09-05T17:16:38.015Z,2.10
2022-09-05T17:19:14.987Z,2.20
2022-09-05T17:23:02.821Z,2.55
2022-09-05T17:29:24.356Z,2.30
2022-09-05T17:29:46.854Z,2.33
2022-09-05T17:33:43.444Z,2.10
2022-09-05T17:36:40.895Z,2.35
2022-09-05T17:39:14.959Z,2.40
2022-09-05T17:41:50.799Z,2.20
2022-09-05T17:44:32.333Z,2.50
2022-09-05T17:47:15.331Z,2.10
2022-09-05T17:49:45.376Z,2.42
2022-09-05T17:52:22.919Z,2.40
2022-09-05T17:54:52.563Z,2.50
2022-09-05T17:57:37.351Z,2.30
2022-09-05T18:00:42.652Z,2.53
2022-09-05T18:03:09.433Z,2.42
2022-09-05T18:05:54.613Z,2.53
2022-09-05T18:08:44.968Z,2.50
2022-09-05T18:11:36.669Z,2.25
2022-09-05T18:14:29.151Z,2.50
2022-09-05T18:17:36.777Z,2.50
2022-09-05T18:19:46.389Z,2.80
2022-09-05T18:26:27.129Z,2.80
2022-09-05T18:29:06.120Z,2.60
2022-09-05T18:31:41.955Z,2.40
2022-09-05T18:41:45.030Z,2.50
2022-09-05T18:44:20.334Z,2.53
